KHHV

Hoover Diana

Hoover Diana, Texas, USA
METAR KHHV 231055Z AUTO 12009G17KT 110V170 4SM HZ SCT015 BKN022 BKN029 26/23 A2997 RMK A01
Observed Flight Rules
May-23 @ 10:55 UTC (21 minutes ago) Marginal Visual Flight Rules
Wind Visibility Clouds Conditions
120° at 9 knots
 Gusting to 17 knots
4 miles
  • Scattered at 1,500' AGL
  • Broken at 2,200' AGL
  • Broken at 2,900' AGL
  • Haze
Temperatures Readings
Current 26°C / 79°F
Dewpoint 23°C / 73°F
Humidity 84%
Altimeter 29.97" Hg
Pressure 1015 hPa
Elevation 25
METAR KHHV 231055Z AUTO 12009G17KT 110V170 4SM HZ SCT015 BKN022 BKN029 26/23 A2997 RMK A01
Observed Flight Rules
May-23 @ 10:55 UTC
(21 minutes ago)
MVFR
Wind Visibility
120° at 9 knots
 Gusting to 17 knots
4 miles
Clouds
  • Scattered at 1,500' AGL
  • Broken at 2,200' AGL
  • Broken at 2,900' AGL
Conditions
  • Haze
Temperature Dewpoint
26°C / 79°F 23°C / 73°F
Humidity Altimeter Pressure
84% 29.97" Hg 1015 hPa